createdAt,value
2023-01-30T00:00:38.560Z,0.00
2023-01-30T00:01:38.569Z,0.00
2023-01-30T00:02:38.573Z,0.00
2023-01-30T00:03:38.580Z,0.00
2023-01-30T00:04:38.589Z,0.00
2023-01-30T00:05:38.603Z,0.00
2023-01-30T00:06:38.605Z,0.00
2023-01-30T00:07:38.621Z,0.00
2023-01-30T00:08:38.616Z,0.00
2023-01-30T00:09:38.627Z,0.00
2023-01-30T00:10:38.634Z,0.00
2023-01-30T00:11:38.652Z,0.00
2023-01-30T00:12:38.651Z,0.00
2023-01-30T00:13:38.655Z,0.00
2023-01-30T00:14:38.678Z,0.00
2023-01-30T00:15:38.681Z,0.00
2023-01-30T00:16:38.734Z,0.00
2023-01-30T00:17:38.687Z,0.00
2023-01-30T00:18:38.695Z,0.00
2023-01-30T00:19:38.701Z,0.00
2023-01-30T00:20:38.710Z,0.00
2023-01-30T00:21:38.718Z,0.00
2023-01-30T00:22:39.688Z,0.00
2023-01-30T00:23:38.739Z,0.00
2023-01-30T00:24:38.858Z,0.00
2023-01-30T00:25:38.876Z,0.00
2023-01-30T00:26:38.763Z,0.00
2023-01-30T00:27:38.766Z,0.00
2023-01-30T00:28:38.771Z,0.00
2023-01-30T00:29:38.780Z,0.00
2023-01-30T00:30:38.823Z,0.00
2023-01-30T00:31:38.810Z,0.00
2023-01-30T00:32:38.804Z,0.00
2023-01-30T00:33:38.811Z,0.00
2023-01-30T00:34:38.822Z,0.00
2023-01-30T00:35:38.828Z,0.00
2023-01-30T00:36:38.837Z,0.00
2023-01-30T00:37:38.843Z,0.00
2023-01-30T00:38:38.849Z,0.00
2023-01-30T00:39:38.856Z,0.00
2023-01-30T00:40:38.865Z,0.00
2023-01-30T00:41:38.876Z,0.00
2023-01-30T00:42:38.881Z,0.00
2023-01-30T00:43:38.901Z,0.00
2023-01-30T00:44:38.898Z,0.00
2023-01-30T00:45:38.923Z,0.00
2023-01-30T00:46:38.912Z,0.00
2023-01-30T00:47:38.920Z,0.00
2023-01-30T00:48:38.929Z,0.00
2023-01-30T00:49:38.935Z,0.00
2023-01-30T00:50:38.941Z,0.00
2023-01-30T00:51:38.959Z,0.00
2023-01-30T00:52:38.965Z,0.00
2023-01-30T00:53:38.997Z,0.00
2023-01-30T00:54:39.000Z,0.00
2023-01-30T00:55:38.988Z,0.00
2023-01-30T00:56:38.987Z,0.00
2023-01-30T00:57:39.005Z,0.00
2023-01-30T00:58:39.018Z,0.00
2023-01-30T00:59:39.015Z,0.00
2023-01-30T01:00:39.037Z,0.00
2023-01-30T01:01:39.060Z,0.00
2023-01-30T01:02:39.083Z,0.00
2023-01-30T01:03:39.057Z,0.00
2023-01-30T01:04:39.053Z,0.00
2023-01-30T01:05:39.057Z,0.00
2023-01-30T01:06:39.066Z,0.00
2023-01-30T01:07:39.073Z,0.00
2023-01-30T01:08:39.092Z,0.00
2023-01-30T01:09:39.105Z,0.00
2023-01-30T01:10:39.095Z,0.00
2023-01-30T01:11:39.111Z,0.00
2023-01-30T01:12:39.112Z,0.00
2023-01-30T01:13:39.121Z,0.00
2023-01-30T01:14:39.128Z,0.00
2023-01-30T01:15:39.163Z,0.00
2023-01-30T01:16:39.168Z,0.00
2023-01-30T01:17:39.150Z,0.00
2023-01-30T01:18:39.159Z,0.00
2023-01-30T01:19:39.169Z,0.00
2023-01-30T01:20:39.174Z,0.00
2023-01-30T01:21:39.181Z,0.00
2023-01-30T01:22:39.189Z,0.00
2023-01-30T01:23:39.197Z,0.00
2023-01-30T01:24:39.207Z,0.00
2023-01-30T01:25:39.211Z,0.00
2023-01-30T01:26:39.232Z,0.00
2023-01-30T01:27:39.226Z,0.00
2023-01-30T01:28:39.242Z,0.00
2023-01-30T01:29:39.245Z,0.00
2023-01-30T01:30:39.257Z,0.00
2023-01-30T01:31:39.297Z,0.00
2023-01-30T01:32:39.267Z,0.00
2023-01-30T01:33:39.274Z,0.00
2023-01-30T01:34:39.281Z,0.00
2023-01-30T01:35:39.288Z,0.00
2023-01-30T01:36:55.002Z,0.00
2023-01-30T01:37:39.303Z,0.00
2023-01-30T01:38:39.314Z,0.00
2023-01-30T01:39:39.320Z,0.00
2023-01-30T01:40:39.329Z,0.00
2023-01-30T01:41:39.336Z,0.00
2023-01-30T01:42:39.341Z,0.00
2023-01-30T01:43:39.350Z,0.00
2023-01-30T01:44:39.356Z,0.00
2023-01-30T01:45:39.369Z,0.00
2023-01-30T01:46:39.375Z,0.00
2023-01-30T01:47:39.379Z,0.00
2023-01-30T01:48:39.388Z,0.00
2023-01-30T01:49:39.394Z,0.00
2023-01-30T01:50:39.405Z,0.00
2023-01-30T01:51:39.419Z,0.00
2023-01-30T01:52:39.418Z,0.00
2023-01-30T01:53:39.426Z,0.00
2023-01-30T01:54:39.433Z,0.00
2023-01-30T01:55:39.443Z,0.00
2023-01-30T01:56:39.453Z,0.00
2023-01-30T01:57:39.454Z,0.00
2023-01-30T01:58:39.465Z,0.00
2023-01-30T01:59:39.483Z,0.00
2023-01-30T02:00:39.479Z,0.00
2023-01-30T02:01:39.490Z,0.00
2023-01-30T02:02:39.554Z,0.00
2023-01-30T02:03:39.517Z,0.00
2023-01-30T02:04:39.514Z,0.00
2023-01-30T02:05:39.518Z,0.00
2023-01-30T02:06:39.524Z,0.00
2023-01-30T02:07:39.535Z,0.00
2023-01-30T02:08:39.541Z,0.00
2023-01-30T02:09:39.550Z,0.00
2023-01-30T02:10:39.554Z,0.00
2023-01-30T02:11:39.564Z,0.00
2023-01-30T02:12:39.568Z,0.00
2023-01-30T02:13:39.592Z,0.00
2023-01-30T02:14:39.584Z,0.00
2023-01-30T02:15:39.593Z,0.00
2023-01-30T02:16:39.611Z,0.00
2023-01-30T02:17:39.679Z,0.00
2023-01-30T02:18:39.617Z,0.00
2023-01-30T02:19:39.623Z,0.00
2023-01-30T02:20:39.632Z,0.00
2023-01-30T02:21:39.642Z,0.00
2023-01-30T02:22:39.645Z,0.00
2023-01-30T02:23:39.653Z,0.00
2023-01-30T02:24:39.665Z,0.00
2023-01-30T02:25:39.667Z,0.00
2023-01-30T02:26:39.693Z,0.00
2023-01-30T02:27:39.682Z,0.00
2023-01-30T02:28:39.690Z,0.00
2023-01-30T02:29:39.693Z,0.00
2023-01-30T02:30:39.779Z,0.00
2023-01-30T02:31:39.792Z,0.00
2023-01-30T02:32:39.720Z,0.00
2023-01-30T02:33:39.725Z,0.00
2023-01-30T02:34:39.732Z,0.00
2023-01-30T02:35:39.741Z,0.00
2023-01-30T02:36:39.748Z,0.00
2023-01-30T02:37:39.760Z,0.00
2023-01-30T02:38:39.761Z,0.00
2023-01-30T02:39:39.769Z,0.00
2023-01-30T02:40:39.782Z,0.00
2023-01-30T02:41:39.784Z,0.00
2023-01-30T02:42:39.790Z,0.00
2023-01-30T02:43:39.796Z,0.00
2023-01-30T02:44:39.804Z,0.00
2023-01-30T02:45:39.820Z,0.00
2023-01-30T02:46:39.818Z,0.00
2023-01-30T02:47:39.836Z,0.00
2023-01-30T02:48:39.832Z,0.00
2023-01-30T02:49:39.841Z,0.00
2023-01-30T02:50:39.850Z,0.00
2023-01-30T02:51:39.853Z,0.00
2023-01-30T02:52:39.869Z,0.00
2023-01-30T02:53:39.868Z,0.00
2023-01-30T02:54:39.876Z,0.00
2023-01-30T02:55:39.882Z,0.00
2023-01-30T02:56:39.890Z,0.00
2023-01-30T02:57:39.897Z,0.00
2023-01-30T02:58:39.904Z,0.00
2023-01-30T02:59:39.912Z,0.00
2023-01-30T03:00:39.918Z,0.00
2023-01-30T03:01:39.991Z,0.00
2023-01-30T03:02:39.976Z,0.00
2023-01-30T03:03:39.937Z,0.00
2023-01-30T03:04:39.948Z,0.00
2023-01-30T03:05:39.958Z,0.00
2023-01-30T03:06:39.963Z,0.00
2023-01-30T03:07:40.106Z,0.00
2023-01-30T03:08:39.975Z,0.00
2023-01-30T03:09:39.989Z,0.00
2023-01-30T03:10:39.990Z,0.00
2023-01-30T03:11:39.999Z,0.00
2023-01-30T03:12:40.009Z,0.00
2023-01-30T03:13:40.018Z,0.00
2023-01-30T03:14:40.028Z,0.00
2023-01-30T03:15:40.028Z,0.00
2023-01-30T03:16:40.034Z,0.00
2023-01-30T03:17:40.039Z,0.00
2023-01-30T03:18:40.054Z,0.00
2023-01-30T03:19:40.054Z,0.00
2023-01-30T03:20:40.066Z,0.00
2023-01-30T03:21:40.069Z,0.00
2023-01-30T03:22:40.078Z,0.00
2023-01-30T03:23:40.091Z,0.00
2023-01-30T03:24:40.093Z,0.00
2023-01-30T03:25:40.099Z,0.00
2023-01-30T03:26:40.116Z,0.00
2023-01-30T03:27:40.114Z,0.00
2023-01-30T03:28:40.121Z,0.00
2023-01-30T03:29:40.126Z,0.00
2023-01-30T03:30:40.158Z,0.00
2023-01-30T03:31:40.254Z,0.00
2023-01-30T03:32:40.152Z,0.00
2023-01-30T03:33:40.155Z,0.00
2023-01-30T03:34:40.166Z,0.00
2023-01-30T03:35:40.175Z,0.00
2023-01-30T03:36:40.178Z,0.00
2023-01-30T03:37:40.190Z,0.00
2023-01-30T03:38:40.192Z,0.00
2023-01-30T03:39:40.201Z,0.00
2023-01-30T03:40:40.210Z,0.00
2023-01-30T03:41:40.219Z,0.00
2023-01-30T03:42:40.222Z,0.00
2023-01-30T03:43:40.230Z,0.00
2023-01-30T03:44:40.251Z,0.00
2023-01-30T03:45:40.246Z,0.00
2023-01-30T03:46:40.261Z,0.00
2023-01-30T03:47:40.265Z,0.00
2023-01-30T03:48:40.268Z,0.00
2023-01-30T03:49:40.279Z,0.00
2023-01-30T03:50:40.283Z,0.00
2023-01-30T03:51:40.289Z,0.00
2023-01-30T03:52:40.296Z,0.00
2023-01-30T03:53:40.314Z,0.00
2023-01-30T03:54:40.313Z,0.00
2023-01-30T03:55:40.327Z,0.00
2023-01-30T03:56:40.329Z,0.00
2023-01-30T03:57:40.335Z,0.00
2023-01-30T03:58:40.343Z,0.00
2023-01-30T03:59:40.347Z,0.00
2023-01-30T04:00:40.356Z,0.00
2023-01-30T04:01:40.364Z,0.00
2023-01-30T04:02:40.447Z,0.00
2023-01-30T04:03:40.379Z,0.00
2023-01-30T04:04:40.386Z,0.00
2023-01-30T04:05:40.393Z,0.00
2023-01-30T04:06:40.401Z,0.00
2023-01-30T04:07:40.409Z,0.00
2023-01-30T04:08:40.416Z,0.00
2023-01-30T04:09:40.424Z,0.00
2023-01-30T04:10:40.432Z,0.00
2023-01-30T04:11:40.438Z,0.00
2023-01-30T04:12:40.450Z,0.00
2023-01-30T04:13:40.459Z,0.00
2023-01-30T04:14:40.464Z,0.00
2023-01-30T04:15:40.478Z,0.00
2023-01-30T04:16:40.523Z,0.00
2023-01-30T04:17:40.489Z,0.00
2023-01-30T04:18:40.491Z,0.00
2023-01-30T04:19:40.499Z,0.00
2023-01-30T04:20:40.508Z,0.00
2023-01-30T04:21:40.524Z,0.00
2023-01-30T04:22:40.523Z,0.00
2023-01-30T04:23:40.541Z,0.00
2023-01-30T04:24:40.541Z,0.00
2023-01-30T04:25:40.545Z,0.00
2023-01-30T04:26:40.584Z,0.00
2023-01-30T04:27:40.561Z,0.00
2023-01-30T04:28:40.567Z,0.00
2023-01-30T04:29:40.577Z,0.00
2023-01-30T04:30:40.619Z,0.00
2023-01-30T04:31:40.649Z,0.00
2023-01-30T04:32:40.599Z,0.00
2023-01-30T04:33:40.606Z,0.00
2023-01-30T04:34:40.623Z,0.00
2023-01-30T04:35:40.627Z,0.00
2023-01-30T04:36:40.632Z,0.00
2023-01-30T04:37:40.643Z,0.00
2023-01-30T04:38:40.649Z,0.00
2023-01-30T04:39:40.655Z,0.00
2023-01-30T04:40:40.672Z,0.00
2023-01-30T04:41:40.669Z,0.00
2023-01-30T04:42:40.679Z,0.00
2023-01-30T04:43:40.685Z,0.00
2023-01-30T04:44:40.699Z,0.00
2023-01-30T04:45:40.698Z,0.00
2023-01-30T04:46:40.711Z,0.00
2023-01-30T04:47:40.829Z,0.00
2023-01-30T04:48:40.723Z,0.00
2023-01-30T04:49:40.731Z,0.00
2023-01-30T04:50:40.739Z,0.00
2023-01-30T04:51:40.755Z,0.00
2023-01-30T04:52:40.760Z,0.00
2023-01-30T04:53:40.764Z,0.00
2023-01-30T04:54:40.774Z,0.00
2023-01-30T04:55:40.779Z,0.00
2023-01-30T04:56:40.809Z,0.00
2023-01-30T04:57:40.796Z,0.00
2023-01-30T04:58:40.814Z,0.00
2023-01-30T04:59:40.829Z,0.00
2023-01-30T05:00:40.856Z,0.00
2023-01-30T05:01:40.843Z,0.00
2023-01-30T05:02:40.844Z,0.00
2023-01-30T05:03:40.840Z,0.00
2023-01-30T05:04:40.855Z,0.00
2023-01-30T05:05:40.863Z,0.00
2023-01-30T05:06:40.870Z,0.00
2023-01-30T05:07:40.883Z,0.00
2023-01-30T05:08:40.893Z,0.00
2023-01-30T05:09:40.888Z,0.00
2023-01-30T05:10:40.895Z,0.00
2023-01-30T05:11:40.952Z,0.00
2023-01-30T05:12:40.912Z,0.00
2023-01-30T05:13:40.914Z,0.00
2023-01-30T05:14:40.925Z,0.00
2023-01-30T05:15:40.932Z,0.00
2023-01-30T05:16:40.958Z,0.00
2023-01-30T05:17:43.048Z,0.00
2023-01-30T05:18:40.956Z,0.00
2023-01-30T05:19:40.967Z,0.00
2023-01-30T05:20:40.971Z,0.00
2023-01-30T05:21:40.997Z,0.00
2023-01-30T05:22:40.987Z,0.00
2023-01-30T05:23:41.000Z,0.00
2023-01-30T05:24:41.001Z,0.00
2023-01-30T05:25:41.008Z,0.00
2023-01-30T05:26:41.039Z,0.00
2023-01-30T05:27:41.024Z,0.00
2023-01-30T05:28:41.033Z,0.00
2023-01-30T05:29:41.051Z,0.00
2023-01-30T05:30:41.088Z,0.00
2023-01-30T05:31:41.073Z,0.00
2023-01-30T05:32:41.099Z,0.00
2023-01-30T05:33:41.072Z,0.00
2023-01-30T05:34:41.093Z,0.00
2023-01-30T05:35:41.089Z,0.00
2023-01-30T05:36:41.091Z,0.00
2023-01-30T05:37:41.103Z,0.00
2023-01-30T05:38:41.108Z,0.00
2023-01-30T05:39:41.116Z,0.00
2023-01-30T05:40:41.123Z,0.00
2023-01-30T05:41:41.131Z,0.00
2023-01-30T05:42:41.139Z,0.00
2023-01-30T05:43:41.147Z,0.00
2023-01-30T05:44:41.160Z,0.00
2023-01-30T05:45:41.161Z,0.00
2023-01-30T05:46:41.209Z,0.00
2023-01-30T05:47:41.176Z,0.00
2023-01-30T05:48:41.185Z,0.00
2023-01-30T05:49:41.194Z,0.00
2023-01-30T05:50:41.208Z,0.00
2023-01-30T05:51:41.205Z,0.00
2023-01-30T05:52:41.213Z,0.00
2023-01-30T05:53:41.220Z,0.00
2023-01-30T05:54:41.227Z,0.00
2023-01-30T05:55:41.238Z,0.00
2023-01-30T05:56:41.241Z,0.00
2023-01-30T05:57:41.248Z,0.00
2023-01-30T05:58:41.256Z,0.00
2023-01-30T05:59:41.272Z,0.00
2023-01-30T06:00:41.273Z,0.00
2023-01-30T06:01:41.280Z,0.00
2023-01-30T06:02:41.305Z,0.00
2023-01-30T06:03:41.361Z,0.00
2023-01-30T06:04:41.303Z,0.00
2023-01-30T06:05:41.309Z,0.00
2023-01-30T06:06:41.316Z,0.00
2023-01-30T06:07:41.325Z,0.00
2023-01-30T06:08:41.336Z,0.00
2023-01-30T06:09:41.344Z,0.00
2023-01-30T06:10:41.349Z,0.00
2023-01-30T06:11:41.355Z,0.00
2023-01-30T06:12:41.364Z,0.00
2023-01-30T06:13:41.369Z,0.00
2023-01-30T06:14:41.378Z,0.00
2023-01-30T06:15:41.428Z,0.00
2023-01-30T06:16:41.433Z,0.00
2023-01-30T06:17:41.417Z,0.00
2023-01-30T06:18:41.407Z,0.00
2023-01-30T06:19:41.419Z,0.00
2023-01-30T06:20:41.427Z,0.00
2023-01-30T06:21:41.431Z,0.00
2023-01-30T06:22:41.440Z,0.00
2023-01-30T06:23:41.448Z,0.00
2023-01-30T06:24:41.456Z,0.00
2023-01-30T06:25:41.474Z,0.00
2023-01-30T06:26:41.541Z,0.00
2023-01-30T06:27:41.476Z,0.00
2023-01-30T06:28:41.483Z,0.00
2023-01-30T06:29:41.493Z,0.00
2023-01-30T06:30:41.499Z,0.00
2023-01-30T06:31:41.532Z,0.00
2023-01-30T06:32:41.532Z,0.00
2023-01-30T06:33:41.528Z,0.00
2023-01-30T06:34:41.529Z,0.00
2023-01-30T06:35:41.540Z,0.00
2023-01-30T06:36:41.544Z,0.00
2023-01-30T06:37:41.554Z,0.00
2023-01-30T06:38:41.558Z,0.00
2023-01-30T06:39:41.580Z,0.00
2023-01-30T06:40:41.581Z,0.00
2023-01-30T06:41:41.582Z,0.00
2023-01-30T06:42:41.602Z,0.00
2023-01-30T06:43:41.627Z,0.00
2023-01-30T06:44:41.624Z,0.00
2023-01-30T06:45:41.614Z,0.00
2023-01-30T06:46:41.628Z,0.00
2023-01-30T06:47:41.629Z,0.00
2023-01-30T06:48:41.651Z,0.00
2023-01-30T06:49:41.645Z,0.00
2023-01-30T06:50:41.658Z,0.00
2023-01-30T06:51:41.677Z,0.00
2023-01-30T06:52:41.671Z,0.00
2023-01-30T06:53:41.678Z,0.00
2023-01-30T06:54:41.690Z,0.00
2023-01-30T06:55:41.694Z,0.00
2023-01-30T06:56:41.700Z,0.00
2023-01-30T06:57:41.713Z,0.00
2023-01-30T06:58:41.721Z,0.00
2023-01-30T06:59:41.726Z,0.00
2023-01-30T07:00:41.738Z,0.00
2023-01-30T07:01:41.770Z,5.63
2023-01-30T07:02:41.754Z,5.63
2023-01-30T07:03:41.765Z,5.63
2023-01-30T07:04:41.773Z,5.63
2023-01-30T07:05:41.773Z,5.63
2023-01-30T07:06:41.782Z,5.63
2023-01-30T07:07:41.790Z,5.63
2023-01-30T07:08:41.798Z,5.63
2023-01-30T07:09:41.807Z,5.63
2023-01-30T07:10:41.819Z,5.63
2023-01-30T07:11:41.826Z,5.63
2023-01-30T07:12:41.833Z,5.63
2023-01-30T07:13:41.841Z,5.63
2023-01-30T07:14:41.845Z,5.63
2023-01-30T07:15:41.854Z,5.63
2023-01-30T07:16:41.906Z,5.63
2023-01-30T07:17:41.878Z,11.25
2023-01-30T07:18:41.878Z,11.25
2023-01-30T07:19:41.889Z,16.88
2023-01-30T07:20:41.894Z,16.88
2023-01-30T07:21:41.918Z,22.50
2023-01-30T07:22:41.911Z,28.13
2023-01-30T07:23:41.920Z,33.75
2023-01-30T07:24:41.928Z,45.00
2023-01-30T07:25:41.937Z,33.75
2023-01-30T07:26:41.958Z,28.13
2023-01-30T07:27:41.953Z,39.38
2023-01-30T07:28:41.960Z,28.13
2023-01-30T07:29:41.968Z,33.75
2023-01-30T07:30:42.032Z,28.13
2023-01-30T07:31:42.024Z,22.50
2023-01-30T07:32:41.994Z,22.50
2023-01-30T07:33:42.003Z,33.75
2023-01-30T07:34:42.011Z,33.75
2023-01-30T07:35:42.059Z,28.13
2023-01-30T07:36:42.027Z,22.50
2023-01-30T07:37:42.034Z,22.50
2023-01-30T07:38:42.043Z,22.50
2023-01-30T07:39:42.063Z,28.13
2023-01-30T07:40:42.068Z,33.75
2023-01-30T07:41:42.069Z,33.75
2023-01-30T07:42:42.077Z,39.38
2023-01-30T07:43:42.104Z,39.38
2023-01-30T07:44:42.093Z,39.38
2023-01-30T07:45:42.102Z,39.38
2023-01-30T07:46:42.170Z,39.38
2023-01-30T07:47:42.120Z,28.13
2023-01-30T07:48:42.129Z,28.13
2023-01-30T07:49:42.221Z,28.13
2023-01-30T07:50:42.173Z,28.13
2023-01-30T07:51:42.153Z,22.50
2023-01-30T07:52:42.162Z,28.13
2023-01-30T07:53:42.178Z,28.13
2023-01-30T07:54:42.184Z,28.13
2023-01-30T07:55:42.190Z,28.13
2023-01-30T07:56:42.208Z,28.13
2023-01-30T07:57:42.216Z,22.50
2023-01-30T07:58:42.215Z,28.13
2023-01-30T07:59:42.228Z,28.13
2023-01-30T08:00:42.235Z,39.38
2023-01-30T08:01:42.243Z,50.63
2023-01-30T08:02:42.255Z,56.25
2023-01-30T08:03:42.261Z,45.00
2023-01-30T08:04:42.319Z,39.38
2023-01-30T08:05:42.274Z,67.50
2023-01-30T08:06:42.280Z,67.50
2023-01-30T08:07:42.290Z,67.50
2023-01-30T08:08:42.298Z,73.13
2023-01-30T08:09:42.354Z,78.75
2023-01-30T08:10:42.319Z,61.88
2023-01-30T08:11:42.328Z,39.38
2023-01-30T08:12:42.337Z,45.00
2023-01-30T08:13:42.341Z,45.00
2023-01-30T08:14:42.352Z,67.50
2023-01-30T08:15:42.362Z,61.88
2023-01-30T08:16:42.410Z,73.13
2023-01-30T08:17:42.396Z,61.88
2023-01-30T08:18:42.397Z,50.63
2023-01-30T08:19:42.409Z,67.50
2023-01-30T08:20:42.402Z,61.88
2023-01-30T08:21:42.415Z,50.63
2023-01-30T08:22:42.421Z,67.50
2023-01-30T08:23:42.433Z,61.88
2023-01-30T08:24:42.439Z,67.50
2023-01-30T08:25:42.447Z,73.13
2023-01-30T08:26:42.471Z,90.00
2023-01-30T08:27:42.464Z,95.63
2023-01-30T08:28:42.477Z,73.13
2023-01-30T08:29:42.486Z,78.75
2023-01-30T08:30:42.556Z,95.63
2023-01-30T08:31:42.539Z,73.13
2023-01-30T08:32:42.515Z,90.00
2023-01-30T08:33:42.524Z,101.25
2023-01-30T08:34:42.527Z,101.25
2023-01-30T08:35:42.537Z,118.13
2023-01-30T08:36:42.549Z,118.13
2023-01-30T08:37:42.551Z,118.13
2023-01-30T08:38:42.563Z,112.50
2023-01-30T08:39:42.574Z,90.00
2023-01-30T08:40:42.582Z,73.13
2023-01-30T08:41:42.603Z,56.25
2023-01-30T08:42:42.602Z,56.25
2023-01-30T08:43:42.626Z,73.13
2023-01-30T08:44:42.623Z,73.13
2023-01-30T08:45:42.625Z,61.88
2023-01-30T08:46:42.709Z,67.50
2023-01-30T08:47:42.665Z,78.75
2023-01-30T08:48:49.599Z,95.63
2023-01-30T08:49:42.680Z,95.63
2023-01-30T08:50:42.675Z,106.88
2023-01-30T08:51:42.683Z,95.63
2023-01-30T08:52:42.693Z,101.25
2023-01-30T08:53:42.708Z,101.25
2023-01-30T08:54:42.718Z,146.25
2023-01-30T08:55:42.729Z,135.00
2023-01-30T08:56:42.732Z,135.00
2023-01-30T08:57:42.740Z,174.38
2023-01-30T08:58:42.749Z,146.25
2023-01-30T08:59:42.758Z,101.25
2023-01-30T09:00:42.764Z,106.88
2023-01-30T09:01:42.775Z,146.25
2023-01-30T09:02:42.783Z,174.38
2023-01-30T09:03:42.796Z,185.63
2023-01-30T09:04:42.802Z,213.75
2023-01-30T09:05:42.811Z,135.00
2023-01-30T09:06:42.823Z,140.63
2023-01-30T09:07:42.831Z,151.88
2023-01-30T09:08:42.861Z,118.13
2023-01-30T09:09:42.852Z,106.88
2023-01-30T09:10:42.860Z,123.75
2023-01-30T09:11:42.870Z,157.50
2023-01-30T09:12:42.885Z,163.13
2023-01-30T09:13:42.889Z,168.75
2023-01-30T09:14:42.906Z,191.25
2023-01-30T09:15:42.909Z,146.25
2023-01-30T09:16:42.965Z,157.50
2023-01-30T09:17:42.928Z,196.88
2023-01-30T09:18:42.939Z,196.88
2023-01-30T09:19:42.947Z,253.13
2023-01-30T09:20:42.959Z,258.75
2023-01-30T09:21:42.969Z,337.50
2023-01-30T09:22:42.975Z,388.13
2023-01-30T09:23:42.987Z,433.13
2023-01-30T09:24:43.006Z,343.13
2023-01-30T09:25:43.009Z,258.75
2023-01-30T09:26:43.072Z,253.13
2023-01-30T09:27:43.026Z,202.50
2023-01-30T09:28:43.051Z,219.38
2023-01-30T09:29:44.415Z,230.63
2023-01-30T09:30:43.146Z,275.63
2023-01-30T09:31:43.110Z,303.75
2023-01-30T09:32:43.079Z,202.50
2023-01-30T09:33:43.087Z,174.38
2023-01-30T09:34:43.097Z,174.38
2023-01-30T09:35:43.113Z,168.75
2023-01-30T09:36:43.121Z,185.63
2023-01-30T09:37:43.129Z,185.63
2023-01-30T09:38:43.146Z,157.50
2023-01-30T09:39:43.151Z,185.63
2023-01-30T09:40:43.159Z,258.75
2023-01-30T09:41:43.169Z,264.38
2023-01-30T09:42:43.183Z,303.75
2023-01-30T09:43:43.198Z,393.75
2023-01-30T09:44:43.204Z,472.50
2023-01-30T09:45:43.215Z,466.88
2023-01-30T09:46:43.225Z,399.38
2023-01-30T09:47:43.239Z,343.13
2023-01-30T09:48:43.243Z,343.13
2023-01-30T09:49:43.253Z,326.25
2023-01-30T09:50:43.269Z,360.00
2023-01-30T09:51:43.276Z,331.88
2023-01-30T09:52:43.287Z,253.13
2023-01-30T09:53:43.298Z,264.38
2023-01-30T09:54:43.316Z,275.63
2023-01-30T09:55:43.326Z,286.88
2023-01-30T09:56:43.328Z,427.50
2023-01-30T09:57:43.342Z,360.00
2023-01-30T09:58:43.355Z,281.25
2023-01-30T09:59:43.360Z,196.88
2023-01-30T10:00:43.380Z,185.63
2023-01-30T10:01:43.382Z,140.63
2023-01-30T10:02:43.396Z,151.88
2023-01-30T10:03:43.452Z,135.00
2023-01-30T10:04:59.010Z,135.00
2023-01-30T10:05:43.427Z,140.63
2023-01-30T10:06:43.441Z,135.00
2023-01-30T10:07:43.491Z,202.50
2023-01-30T10:08:43.467Z,213.75
2023-01-30T10:09:43.479Z,196.88
2023-01-30T10:10:43.482Z,225.00
2023-01-30T10:11:43.496Z,208.13
2023-01-30T10:12:43.579Z,185.63
2023-01-30T10:13:43.515Z,219.38
2023-01-30T10:14:43.522Z,298.13
2023-01-30T10:15:43.605Z,292.50
2023-01-30T10:16:43.544Z,433.13
2023-01-30T10:17:43.558Z,331.88
2023-01-30T10:18:43.604Z,405.00
2023-01-30T10:19:43.579Z,320.63
2023-01-30T10:20:43.648Z,343.13
2023-01-30T10:21:43.606Z,298.13
2023-01-30T10:22:43.695Z,213.75
2023-01-30T10:23:43.664Z,281.25
2023-01-30T10:24:43.633Z,241.88
2023-01-30T10:25:43.650Z,191.25
2023-01-30T10:26:43.676Z,247.50
2023-01-30T10:27:43.664Z,225.00
2023-01-30T10:28:47.644Z,185.63
2023-01-30T10:29:43.688Z,191.25
2023-01-30T10:30:43.732Z,191.25
2023-01-30T10:31:43.765Z,213.75
2023-01-30T10:32:43.757Z,225.00
2023-01-30T10:33:43.728Z,371.25
2023-01-30T10:34:43.748Z,416.25
2023-01-30T10:35:43.755Z,534.38
2023-01-30T10:36:43.776Z,371.25
2023-01-30T10:37:43.772Z,275.63
2023-01-30T10:38:43.785Z,320.63
2023-01-30T10:39:54.561Z,343.13
2023-01-30T10:40:43.805Z,202.50
2023-01-30T10:41:43.818Z,264.38
2023-01-30T10:42:43.943Z,275.63
2023-01-30T10:43:43.839Z,202.50
2023-01-30T10:44:43.862Z,292.50
2023-01-30T10:45:43.859Z,264.38
2023-01-30T10:46:43.905Z,219.38
2023-01-30T10:47:47.261Z,320.63
2023-01-30T10:48:46.001Z,286.88
2023-01-30T10:49:43.904Z,253.13
2023-01-30T10:50:43.918Z,253.13
2023-01-30T10:51:43.938Z,253.13
2023-01-30T10:52:43.937Z,309.38
2023-01-30T10:53:43.947Z,247.50
2023-01-30T10:54:43.975Z,247.50
2023-01-30T10:55:43.974Z,275.63
2023-01-30T10:56:43.981Z,247.50
2023-01-30T10:57:43.995Z,180.00
2023-01-30T10:58:44.005Z,202.50
2023-01-30T10:59:44.021Z,270.00
2023-01-30T11:00:44.025Z,315.00
2023-01-30T11:01:44.129Z,337.50
2023-01-30T11:02:44.077Z,298.13
2023-01-30T11:03:44.060Z,376.88
2023-01-30T11:04:44.077Z,292.50
2023-01-30T11:05:44.096Z,219.38
2023-01-30T11:06:44.097Z,315.00
2023-01-30T11:07:44.110Z,331.88
2023-01-30T11:08:44.116Z,320.63
2023-01-30T11:09:44.123Z,208.13
2023-01-30T11:10:44.142Z,112.50
2023-01-30T11:11:44.149Z,101.25
2023-01-30T11:12:44.164Z,112.50
2023-01-30T11:13:44.181Z,174.38
2023-01-30T11:14:44.187Z,157.50
2023-01-30T11:15:44.316Z,208.13
2023-01-30T11:16:44.217Z,185.63
2023-01-30T11:17:44.218Z,303.75
2023-01-30T11:19:18.658Z,382.50
2023-01-30T11:19:44.238Z,354.38
2023-01-30T11:20:44.253Z,320.63
2023-01-30T11:21:44.921Z,275.63
2023-01-30T11:22:44.276Z,399.38
2023-01-30T11:23:44.285Z,376.88
2023-01-30T11:24:44.299Z,320.63
2023-01-30T11:25:44.306Z,281.25
2023-01-30T11:26:47.709Z,270.00
2023-01-30T11:27:44.328Z,180.00
2023-01-30T11:28:45.169Z,196.88
2023-01-30T11:29:44.354Z,236.25
2023-01-30T11:30:44.360Z,281.25
2023-01-30T11:31:44.472Z,382.50
2023-01-30T11:32:44.388Z,348.75
2023-01-30T11:33:44.398Z,360.00
2023-01-30T11:34:44.435Z,348.75
2023-01-30T11:35:44.417Z,348.75
2023-01-30T11:36:44.430Z,371.25
2023-01-30T11:37:44.456Z,326.25
2023-01-30T11:38:44.457Z,247.50
2023-01-30T11:39:44.465Z,275.63
2023-01-30T11:40:44.477Z,281.25
2023-01-30T11:41:44.487Z,225.00
2023-01-30T11:42:44.501Z,298.13
2023-01-30T11:43:44.511Z,286.88
2023-01-30T11:44:44.524Z,343.13
2023-01-30T11:45:44.595Z,466.88
2023-01-30T11:46:44.550Z,450.00
2023-01-30T11:47:54.130Z,399.38
2023-01-30T11:49:03.340Z,382.50
2023-01-30T11:49:51.563Z,337.50
2023-01-30T11:50:47.251Z,331.88
2023-01-30T11:51:44.616Z,241.88
2023-01-30T11:52:44.622Z,348.75
2023-01-30T11:53:44.635Z,270.00
2023-01-30T11:54:44.653Z,315.00
2023-01-30T11:56:00.293Z,371.25
2023-01-30T11:56:44.662Z,236.25
2023-01-30T11:57:44.700Z,213.75
2023-01-30T11:58:44.688Z,270.00
2023-01-30T11:59:44.698Z,275.63
2023-01-30T12:00:44.710Z,292.50
2023-01-30T12:01:44.757Z,500.63
2023-01-30T12:02:44.755Z,472.50
2023-01-30T12:03:44.751Z,528.75
2023-01-30T12:04:44.759Z,675.00
2023-01-30T12:05:44.772Z,697.50
2023-01-30T12:06:44.781Z,601.88
2023-01-30T12:07:44.796Z,635.63
2023-01-30T12:08:44.805Z,765.00
2023-01-30T12:09:44.834Z,725.63
2023-01-30T12:10:44.831Z,770.63
2023-01-30T12:11:44.839Z,748.13
2023-01-30T12:12:44.858Z,630.00
2023-01-30T12:13:44.868Z,478.13
2023-01-30T12:14:45.938Z,410.63
2023-01-30T12:15:44.893Z,326.25
2023-01-30T12:16:44.937Z,219.38
2023-01-30T12:17:44.917Z,208.13
2023-01-30T12:18:44.931Z,236.25
2023-01-30T12:19:44.943Z,191.25
2023-01-30T12:20:44.963Z,196.88
2023-01-30T12:21:44.975Z,168.75
2023-01-30T12:22:44.984Z,174.38
2023-01-30T12:23:45.005Z,180.00
2023-01-30T12:24:45.015Z,253.13
2023-01-30T12:25:45.024Z,393.75
2023-01-30T12:26:45.095Z,315.00
2023-01-30T12:27:45.051Z,303.75
2023-01-30T12:28:45.063Z,326.25
2023-01-30T12:29:45.070Z,270.00
2023-01-30T12:30:45.085Z,196.88
2023-01-30T12:31:45.120Z,196.88
2023-01-30T12:32:45.107Z,168.75
2023-01-30T12:33:45.125Z,191.25
2023-01-30T12:34:45.131Z,191.25
2023-01-30T12:35:45.145Z,202.50
2023-01-30T12:36:45.156Z,286.88
2023-01-30T12:37:45.172Z,354.38
2023-01-30T12:38:45.190Z,371.25
2023-01-30T12:40:47.066Z,241.88
2023-01-30T12:41:45.218Z,320.63
2023-01-30T12:42:45.228Z,376.88
2023-01-30T12:43:45.245Z,236.25
2023-01-30T12:44:45.253Z,196.88
2023-01-30T12:45:45.263Z,236.25
2023-01-30T12:46:45.273Z,292.50
2023-01-30T12:47:45.286Z,219.38
2023-01-30T12:48:48.605Z,247.50
2023-01-30T12:49:45.310Z,241.88
2023-01-30T12:50:45.333Z,253.13
2023-01-30T12:51:45.340Z,213.75
2023-01-30T12:52:45.342Z,241.88
2023-01-30T12:53:45.357Z,298.13
2023-01-30T12:54:45.367Z,247.50
2023-01-30T12:55:45.379Z,241.88
2023-01-30T12:56:46.373Z,225.00
2023-01-30T12:57:45.400Z,253.13
2023-01-30T12:58:45.415Z,258.75
2023-01-30T12:59:45.429Z,270.00